createdAt,value
2022-10-07T00:02:08.950Z,3.23
2022-10-07T00:06:01.156Z,3.50
2022-10-07T00:09:43.825Z,3.20
2022-10-07T00:13:26.496Z,3.37
2022-10-07T00:17:10.528Z,3.20
2022-10-07T00:20:53.172Z,3.27
2022-10-07T00:24:36.006Z,3.00
2022-10-07T00:28:18.665Z,2.63
2022-10-07T00:32:01.328Z,2.90
2022-10-07T00:35:45.615Z,2.70
2022-10-07T00:39:28.654Z,2.80
2022-10-07T00:43:22.244Z,2.80
2022-10-07T00:47:06.261Z,3.07
2022-10-07T00:50:52.363Z,3.00
2022-10-07T00:54:35.016Z,3.10
2022-10-07T00:58:19.340Z,3.07
2022-10-07T01:02:02.157Z,3.23
2022-10-07T01:05:44.872Z,3.90
2022-10-07T01:09:29.008Z,2.90
2022-10-07T01:13:15.339Z,3.10
2022-10-07T01:17:03.146Z,3.17
2022-10-07T01:20:51.368Z,3.03
2022-10-07T01:24:41.547Z,2.90
2022-10-07T01:28:29.487Z,3.50
2022-10-07T01:32:14.915Z,3.20
2022-10-07T01:36:02.413Z,3.13
2022-10-07T01:39:49.156Z,3.03
2022-10-07T01:43:37.081Z,2.77
2022-10-07T01:47:19.816Z,3.07
2022-10-07T01:51:02.508Z,3.03
2022-10-07T01:54:59.523Z,3.00
2022-10-07T01:58:56.223Z,3.37
2022-10-07T02:02:53.096Z,2.90
2022-10-07T02:06:42.504Z,3.17
2022-10-07T02:10:28.056Z,3.67
2022-10-07T02:14:13.501Z,2.70
2022-10-07T02:17:57.747Z,3.10
2022-10-07T02:21:41.658Z,3.27
2022-10-07T02:25:25.181Z,3.93
2022-10-07T02:29:09.290Z,3.90
2022-10-07T02:32:55.547Z,3.83
2022-10-07T02:36:40.841Z,3.60
2022-10-07T02:40:23.576Z,3.70
2022-10-07T02:44:14.549Z,3.80
2022-10-07T02:48:00.460Z,3.73
2022-10-07T02:51:48.236Z,3.80
2022-10-07T02:55:31.897Z,4.00
2022-10-07T02:59:15.660Z,4.10
2022-10-07T03:03:02.546Z,3.97
2022-10-07T03:06:45.774Z,4.20
2022-10-07T03:10:28.958Z,4.27
2022-10-07T03:14:11.736Z,4.20
2022-10-07T03:17:54.396Z,4.30
2022-10-07T03:21:40.560Z,3.87
2022-10-07T03:25:23.224Z,4.43
2022-10-07T03:29:06.466Z,4.50
2022-10-07T03:32:49.534Z,5.07
2022-10-07T03:36:32.207Z,4.90
2022-10-07T03:40:16.482Z,5.60
2022-10-07T03:43:59.363Z,5.23
2022-10-07T03:47:42.384Z,5.53
2022-10-07T03:51:25.442Z,4.80
2022-10-07T03:55:09.538Z,4.63
2022-10-07T03:58:53.681Z,4.73
2022-10-07T04:02:36.317Z,5.37
2022-10-07T04:06:19.398Z,5.77
2022-10-07T04:10:02.104Z,5.53
2022-10-07T04:13:45.123Z,5.60
2022-10-07T04:17:29.350Z,5.50
2022-10-07T04:21:12.736Z,5.10
2022-10-07T04:25:12.710Z,5.60
2022-10-07T04:28:55.341Z,5.63
2022-10-07T04:32:39.499Z,6.03
2022-10-07T04:36:22.220Z,5.03
2022-10-07T04:40:05.323Z,5.43
2022-10-07T04:43:56.830Z,5.60
2022-10-07T04:47:42.189Z,5.20
2022-10-07T04:51:25.588Z,5.93
2022-10-07T04:55:09.265Z,6.43
2022-10-07T04:58:51.932Z,7.70
2022-10-07T05:02:34.674Z,9.20
2022-10-07T05:06:18.850Z,9.83
2022-10-07T05:10:01.547Z,10.80
2022-10-07T05:13:44.374Z,10.50
2022-10-07T05:17:27.037Z,10.17
2022-10-07T05:21:10.281Z,11.27
2022-10-07T05:24:54.518Z,10.83
2022-10-07T05:28:39.182Z,10.33
2022-10-07T05:32:22.027Z,10.43
2022-10-07T05:36:05.520Z,9.90
2022-10-07T05:39:48.646Z,9.57
2022-10-07T05:43:34.584Z,9.17
2022-10-07T05:47:18.802Z,10.77
2022-10-07T05:51:01.746Z,9.93
2022-10-07T05:54:44.403Z,10.80
2022-10-07T05:58:27.896Z,10.27
2022-10-07T06:02:15.196Z,11.20
2022-10-07T06:05:59.489Z,11.10
2022-10-07T06:09:59.587Z,11.10
2022-10-07T06:13:42.283Z,11.50
2022-10-07T06:17:26.273Z,11.70
2022-10-07T06:21:11.215Z,11.60
2022-10-07T06:24:57.701Z,12.73
2022-10-07T06:28:42.208Z,11.90
2022-10-07T06:32:26.329Z,12.90
2022-10-07T06:36:12.051Z,13.33
2022-10-07T06:39:59.349Z,14.27
2022-10-07T06:43:42.392Z,13.40
2022-10-07T06:47:26.474Z,14.07
2022-10-07T06:51:10.371Z,13.90
2022-10-07T06:55:00.483Z,13.50
2022-10-07T06:58:43.643Z,13.60
2022-10-07T07:02:29.429Z,14.47
2022-10-07T07:06:12.172Z,14.07
2022-10-07T07:09:54.833Z,13.93
2022-10-07T07:13:38.849Z,14.00
2022-10-07T07:17:22.946Z,12.77
2022-10-07T07:21:07.751Z,12.63
2022-10-07T07:24:50.766Z,11.60
2022-10-07T07:28:33.535Z,11.40
2022-10-07T07:32:16.410Z,11.70
2022-10-07T07:36:00.055Z,11.03
2022-10-07T07:39:44.503Z,11.17
2022-10-07T07:43:27.214Z,10.50
2022-10-07T07:47:09.971Z,10.30
2022-10-07T07:50:53.268Z,10.47
2022-10-07T07:54:37.569Z,10.53
2022-10-07T07:58:22.181Z,10.00
2022-10-07T08:02:05.101Z,13.73
2022-10-07T08:05:48.839Z,14.53
2022-10-07T08:09:31.877Z,13.93
2022-10-07T08:13:14.553Z,12.10
2022-10-07T08:16:59.078Z,12.50
2022-10-07T08:20:41.789Z,12.10
2022-10-07T08:24:25.759Z,11.80
2022-10-07T08:28:08.487Z,13.60
2022-10-07T08:31:51.371Z,12.97
2022-10-07T08:35:35.506Z,11.20
2022-10-07T08:39:18.600Z,14.03
2022-10-07T08:43:01.272Z,12.03
2022-10-07T08:46:52.359Z,12.80
2022-10-07T08:50:44.094Z,14.27
2022-10-07T08:54:30.726Z,13.03
2022-10-07T08:58:35.399Z,14.00
2022-10-07T09:02:25.074Z,14.77
2022-10-07T09:06:14.221Z,13.30
2022-10-07T09:10:00.861Z,14.13
2022-10-07T09:13:46.619Z,16.10
2022-10-07T09:17:35.225Z,14.47
2022-10-07T09:21:23.481Z,13.73
2022-10-07T09:25:20.475Z,13.27
2022-10-07T09:29:03.221Z,13.43
2022-10-07T09:32:47.627Z,13.27
2022-10-07T09:36:31.694Z,14.97
2022-10-07T09:40:21.939Z,14.17
2022-10-07T09:44:06.405Z,15.10
2022-10-07T09:47:53.508Z,13.57
2022-10-07T09:51:38.344Z,15.00
2022-10-07T09:55:32.653Z,15.03
2022-10-07T09:59:20.800Z,15.20
2022-10-07T10:03:06.438Z,14.10
2022-10-07T10:06:52.318Z,12.73
2022-10-07T10:10:36.435Z,14.10
2022-10-07T10:14:32.860Z,13.33
2022-10-07T10:18:34.775Z,13.20
2022-10-07T10:22:26.989Z,13.80
2022-10-07T10:26:32.454Z,13.87
2022-10-07T10:30:20.901Z,15.83
2022-10-07T10:34:09.558Z,15.17
2022-10-07T10:38:04.943Z,13.63
2022-10-07T10:41:51.312Z,13.87
2022-10-07T10:45:36.915Z,15.40
2022-10-07T10:49:26.207Z,15.50
2022-10-07T10:53:22.979Z,14.00
2022-10-07T10:57:12.160Z,15.03
2022-10-07T11:01:01.084Z,14.37
2022-10-07T11:04:46.605Z,13.67
2022-10-07T11:08:37.772Z,13.23
2022-10-07T11:12:26.749Z,13.90
2022-10-07T11:16:12.385Z,12.57
2022-10-07T11:20:04.219Z,12.30
2022-10-07T11:23:54.604Z,11.13
2022-10-07T11:27:37.351Z,12.07
2022-10-07T11:31:27.796Z,11.73
2022-10-07T11:35:23.316Z,12.03
2022-10-07T11:39:09.041Z,12.73
2022-10-07T11:42:52.299Z,11.00
2022-10-07T11:46:36.638Z,10.60
2022-10-07T11:50:21.968Z,11.17
2022-10-07T11:54:07.962Z,10.70
2022-10-07T11:57:54.554Z,12.57
2022-10-07T12:01:52.580Z,10.13
2022-10-07T12:06:10.153Z,12.30
2022-10-07T12:10:18.226Z,12.70
2022-10-07T12:14:24.737Z,11.10
2022-10-07T12:18:28.454Z,10.77
2022-10-07T12:22:20.395Z,9.27
2022-10-07T12:26:06.627Z,10.60
2022-10-07T12:29:58.868Z,10.35
2022-10-07T12:33:55.761Z,11.07
2022-10-07T12:37:50.333Z,9.90
2022-10-07T12:41:43.891Z,12.33
2022-10-07T12:45:28.214Z,11.47
2022-10-07T12:49:16.851Z,12.35
2022-10-07T12:53:02.620Z,12.43
2022-10-07T12:56:47.771Z,11.90
2022-10-07T13:00:31.803Z,13.13
2022-10-07T13:04:27.497Z,12.70
2022-10-07T13:08:46.043Z,12.52
2022-10-07T13:12:36.334Z,11.43
2022-10-07T13:16:22.806Z,11.85
2022-10-07T13:20:17.316Z,12.57
2022-10-07T13:24:00.136Z,12.02
2022-10-07T13:27:48.167Z,11.80
2022-10-07T13:31:33.335Z,10.55
2022-10-07T13:35:33.216Z,12.90
2022-10-07T13:39:22.154Z,10.73
2022-10-07T13:43:08.010Z,10.23
2022-10-07T13:46:55.515Z,9.73
2022-10-07T13:50:41.241Z,8.93
2022-10-07T13:54:25.758Z,10.75
2022-10-07T13:58:11.118Z,12.02
2022-10-07T14:01:56.464Z,10.48
2022-10-07T14:05:48.208Z,11.23
2022-10-07T14:09:45.018Z,17.48
2022-10-07T14:13:50.938Z,10.43
2022-10-07T14:17:40.539Z,9.38
2022-10-07T14:21:23.281Z,8.02
2022-10-07T14:25:08.113Z,7.68
2022-10-07T14:28:55.368Z,7.28
2022-10-07T14:32:55.761Z,7.93
2022-10-07T14:36:38.458Z,7.13
2022-10-07T14:40:23.410Z,7.03
2022-10-07T14:44:24.614Z,6.13
2022-10-07T14:48:13.038Z,5.97
2022-10-07T14:51:55.792Z,7.40
2022-10-07T14:55:38.500Z,6.28
2022-10-07T14:59:23.358Z,6.03
2022-10-07T15:03:06.062Z,6.68
2022-10-07T15:06:50.852Z,7.20
2022-10-07T15:10:33.909Z,8.43
2022-10-07T15:14:19.659Z,7.75
2022-10-07T15:18:03.707Z,8.48
2022-10-07T15:21:46.357Z,8.93
2022-10-07T15:25:31.768Z,8.23
2022-10-07T15:29:39.402Z,8.20
2022-10-07T15:33:23.516Z,8.27
2022-10-07T15:37:06.263Z,8.65
2022-10-07T15:40:53.415Z,9.27
2022-10-07T15:44:42.542Z,8.32
2022-10-07T15:48:28.642Z,9.13
2022-10-07T15:52:14.547Z,8.90
2022-10-07T15:55:58.819Z,8.33
2022-10-07T15:59:42.145Z,9.40
2022-10-07T16:03:26.446Z,11.67
2022-10-07T16:07:11.252Z,10.73
2022-10-07T16:10:53.978Z,10.10
2022-10-07T16:14:36.848Z,10.00
2022-10-07T16:18:19.492Z,11.10
2022-10-07T16:22:03.646Z,11.33
2022-10-07T16:25:46.307Z,10.87
2022-10-07T16:29:54.402Z,12.87
2022-10-07T16:33:37.200Z,12.53
2022-10-07T16:37:21.263Z,12.67
2022-10-07T16:41:03.973Z,12.33
2022-10-07T16:44:51.140Z,12.20
2022-10-07T16:48:38.980Z,13.40
2022-10-07T16:52:23.037Z,11.80
2022-10-07T16:56:06.082Z,12.37
2022-10-07T17:00:22.234Z,13.10
2022-10-07T17:04:05.002Z,13.27
2022-10-07T17:07:49.286Z,14.37
2022-10-07T17:11:33.768Z,18.30
2022-10-07T17:15:16.683Z,16.97
2022-10-07T17:18:59.699Z,15.17
2022-10-07T17:22:43.233Z,14.10
2022-10-07T17:26:28.108Z,13.97
2022-10-07T17:30:12.303Z,15.73
2022-10-07T17:33:55.158Z,15.93
2022-10-07T17:37:37.980Z,23.17
2022-10-07T17:41:22.681Z,16.93
2022-10-07T17:45:19.017Z,16.83
2022-10-07T17:49:03.372Z,14.90
2022-10-07T17:52:46.104Z,17.97
2022-10-07T17:56:29.865Z,17.67
2022-10-07T18:00:34.623Z,21.13
2022-10-07T18:04:23.749Z,19.10
2022-10-07T18:08:07.599Z,18.30
2022-10-07T18:12:07.636Z,18.07
2022-10-07T18:15:59.070Z,19.50
2022-10-07T18:19:41.862Z,18.70
2022-10-07T18:23:25.596Z,19.70
2022-10-07T18:27:08.284Z,19.90
2022-10-07T18:30:50.993Z,18.87
2022-10-07T18:34:35.117Z,19.23
2022-10-07T18:38:17.791Z,19.47
2022-10-07T18:42:00.446Z,17.97
2022-10-07T18:45:43.192Z,16.43
2022-10-07T18:49:26.342Z,16.00
2022-10-07T18:53:10.354Z,15.23
2022-10-07T18:56:53.059Z,16.47
2022-10-07T19:00:35.814Z,16.00
2022-10-07T19:04:18.825Z,16.03
2022-10-07T19:08:01.751Z,16.10
2022-10-07T19:11:45.988Z,17.40
2022-10-07T19:15:28.738Z,17.67
2022-10-07T19:19:13.888Z,16.80
2022-10-07T19:22:56.543Z,18.10
2022-10-07T19:26:42.301Z,19.60
2022-10-07T19:30:26.449Z,18.90
2022-10-07T19:34:10.772Z,18.80
2022-10-07T19:37:54.263Z,20.70
2022-10-07T19:41:37.732Z,19.50
2022-10-07T19:45:21.854Z,19.70
2022-10-07T19:49:07.124Z,19.03
2022-10-07T19:52:50.676Z,17.93
2022-10-07T19:56:35.580Z,16.23
2022-10-07T20:00:18.374Z,16.37
2022-10-07T20:04:02.718Z,16.87
2022-10-07T20:07:47.075Z,16.50
2022-10-07T20:11:29.981Z,17.50
2022-10-07T20:15:13.402Z,17.27
2022-10-07T20:19:00.553Z,18.47
2022-10-07T20:22:49.371Z,18.07
2022-10-07T20:26:35.887Z,18.30
2022-10-07T20:30:18.781Z,17.73
2022-10-07T20:34:02.577Z,19.97
2022-10-07T20:37:45.297Z,16.77
2022-10-07T20:41:46.639Z,18.23
2022-10-07T20:45:51.050Z,17.80
2022-10-07T20:49:41.993Z,16.90
2022-10-07T20:53:24.941Z,17.93
2022-10-07T20:57:07.667Z,17.37
2022-10-07T21:00:51.754Z,16.57
2022-10-07T21:04:35.169Z,18.13
2022-10-07T21:08:18.380Z,18.30
2022-10-07T21:12:01.273Z,17.80
2022-10-07T21:15:43.962Z,17.43
2022-10-07T21:19:28.179Z,23.57
2022-10-07T21:23:10.874Z,16.00
2022-10-07T21:26:53.588Z,14.80
2022-10-07T21:30:36.374Z,16.27
2022-10-07T21:34:19.342Z,16.33
2022-10-07T21:38:03.415Z,15.63
2022-10-07T21:41:47.716Z,16.13
2022-10-07T21:45:31.020Z,16.77
2022-10-07T21:49:14.474Z,16.30
2022-10-07T21:52:58.314Z,17.57
2022-10-07T21:56:43.629Z,16.30
2022-10-07T22:00:26.754Z,16.90
2022-10-07T22:04:16.439Z,17.27
2022-10-07T22:08:16.948Z,15.90
2022-10-07T22:12:01.191Z,15.47
2022-10-07T22:15:43.918Z,15.60
2022-10-07T22:19:26.621Z,15.03
2022-10-07T22:23:09.341Z,14.47
2022-10-07T22:26:52.114Z,13.27
2022-10-07T22:30:39.714Z,13.03
2022-10-07T22:34:50.040Z,13.27
2022-10-07T22:38:32.768Z,13.23
2022-10-07T22:42:15.430Z,13.20
2022-10-07T22:46:00.114Z,13.97
2022-10-07T22:49:42.846Z,11.97
2022-10-07T22:53:26.309Z,14.10
2022-10-07T22:57:08.984Z,14.20
2022-10-07T23:00:51.704Z,13.70
2022-10-07T23:04:35.783Z,13.03
2022-10-07T23:08:18.504Z,12.57
2022-10-07T23:12:01.193Z,13.00
2022-10-07T23:15:45.337Z,12.63
2022-10-07T23:19:28.062Z,13.13
2022-10-07T23:23:12.072Z,13.07
2022-10-07T23:26:54.877Z,12.30
2022-10-07T23:30:38.225Z,12.10
2022-10-07T23:34:20.895Z,12.17
2022-10-07T23:38:03.546Z,12.13
2022-10-07T23:41:47.601Z,12.13
2022-10-07T23:45:30.273Z,12.90
2022-10-07T23:49:13.327Z,13.07
2022-10-07T23:52:56.019Z,12.47
2022-10-07T23:56:38.701Z,11.93
